sensor_id;sensor_type;location;lat;lon;timestamp;P1;durP1;ratioP1;P2;durP2;ratioP2
49578;SDS011;35483;50.828;3.228;2023-09-18T00:02:24;4.68;;;2.88;;
49578;SDS011;35483;50.828;3.228;2023-09-18T00:04:50;3.83;;;2.65;;
49578;SDS011;35483;50.828;3.228;2023-09-18T00:07:17;4.20;;;2.45;;
49578;SDS011;35483;50.828;3.228;2023-09-18T00:09:42;3.17;;;2.53;;
49578;SDS011;35483;50.828;3.228;2023-09-18T00:12:08;3.92;;;2.47;;
49578;SDS011;35483;50.828;3.228;2023-09-18T00:14:34;2.35;;;2.10;;
49578;SDS011;35483;50.828;3.228;2023-09-18T00:17:03;3.53;;;2.78;;
49578;SDS011;35483;50.828;3.228;2023-09-18T00:19:29;3.67;;;2.50;;
49578;SDS011;35483;50.828;3.228;2023-09-18T00:21:56;2.95;;;2.65;;
49578;SDS011;35483;50.828;3.228;2023-09-18T00:24:25;2.60;;;2.35;;
49578;SDS011;35483;50.828;3.228;2023-09-18T00:26:51;3.38;;;2.15;;
49578;SDS011;35483;50.828;3.228;2023-09-18T00:29:17;3.63;;;2.20;;
49578;SDS011;35483;50.828;3.228;2023-09-18T00:31:44;3.20;;;2.88;;
49578;SDS011;35483;50.828;3.228;2023-09-18T00:34:09;3.05;;;2.20;;
49578;SDS011;35483;50.828;3.228;2023-09-18T00:36:35;2.50;;;2.13;;
49578;SDS011;35483;50.828;3.228;2023-09-18T00:39:00;3.42;;;2.38;;
49578;SDS011;35483;50.828;3.228;2023-09-18T00:41:27;3.13;;;2.65;;
49578;SDS011;35483;50.828;3.228;2023-09-18T00:43:52;3.08;;;2.63;;
49578;SDS011;35483;50.828;3.228;2023-09-18T00:46:18;2.53;;;2.30;;
49578;SDS011;35483;50.828;3.228;2023-09-18T00:48:45;5.32;;;2.55;;
49578;SDS011;35483;50.828;3.228;2023-09-18T00:51:11;4.20;;;2.75;;
49578;SDS011;35483;50.828;3.228;2023-09-18T00:53:38;4.65;;;2.67;;
49578;SDS011;35483;50.828;3.228;2023-09-18T00:56:08;3.17;;;2.35;;
49578;SDS011;35483;50.828;3.228;2023-09-18T00:58:35;3.90;;;2.55;;
49578;SDS011;35483;50.828;3.228;2023-09-18T01:01:00;3.00;;;2.35;;
49578;SDS011;35483;50.828;3.228;2023-09-18T01:03:26;4.13;;;2.20;;
49578;SDS011;35483;50.828;3.228;2023-09-18T01:05:53;3.22;;;2.35;;
49578;SDS011;35483;50.828;3.228;2023-09-18T01:08:19;3.30;;;2.47;;
49578;SDS011;35483;50.828;3.228;2023-09-18T01:10:47;3.75;;;2.47;;
49578;SDS011;35483;50.828;3.228;2023-09-18T01:13:41;4.82;;;2.13;;
49578;SDS011;35483;50.828;3.228;2023-09-18T01:16:17;3.03;;;2.35;;
49578;SDS011;35483;50.828;3.228;2023-09-18T01:18:48;3.20;;;2.42;;
49578;SDS011;35483;50.828;3.228;2023-09-18T01:21:20;2.50;;;2.30;;
49578;SDS011;35483;50.828;3.228;2023-09-18T01:23:46;2.85;;;2.03;;
49578;SDS011;35483;50.828;3.228;2023-09-18T01:26:14;2.25;;;2.00;;
49578;SDS011;35483;50.828;3.228;2023-09-18T01:28:39;3.15;;;2.10;;
49578;SDS011;35483;50.828;3.228;2023-09-18T01:31:05;4.05;;;2.03;;
49578;SDS011;35483;50.828;3.228;2023-09-18T01:33:31;2.55;;;2.10;;
49578;SDS011;35483;50.828;3.228;2023-09-18T01:35:59;2.65;;;2.35;;
49578;SDS011;35483;50.828;3.228;2023-09-18T01:38:25;2.30;;;2.10;;
49578;SDS011;35483;50.828;3.228;2023-09-18T01:40:52;5.13;;;2.20;;
49578;SDS011;35483;50.828;3.228;2023-09-18T01:43:19;2.50;;;2.20;;
49578;SDS011;35483;50.828;3.228;2023-09-18T01:45:45;2.70;;;2.30;;
49578;SDS011;35483;50.828;3.228;2023-09-18T01:48:12;2.83;;;2.25;;
49578;SDS011;35483;50.828;3.228;2023-09-18T01:50:38;3.13;;;1.90;;
49578;SDS011;35483;50.828;3.228;2023-09-18T01:53:07;2.92;;;2.05;;
49578;SDS011;35483;50.828;3.228;2023-09-18T01:55:33;3.83;;;2.35;;
49578;SDS011;35483;50.828;3.228;2023-09-18T01:57:59;3.53;;;2.50;;
49578;SDS011;35483;50.828;3.228;2023-09-18T02:00:24;2.85;;;1.85;;
49578;SDS011;35483;50.828;3.228;2023-09-18T02:02:50;1.67;;;1.55;;
49578;SDS011;35483;50.828;3.228;2023-09-18T02:05:16;2.50;;;2.17;;
49578;SDS011;35483;50.828;3.228;2023-09-18T02:07:42;3.92;;;1.75;;
49578;SDS011;35483;50.828;3.228;2023-09-18T02:10:07;3.95;;;1.75;;
49578;SDS011;35483;50.828;3.228;2023-09-18T02:12:33;2.85;;;1.83;;
49578;SDS011;35483;50.828;3.228;2023-09-18T02:14:59;2.53;;;1.75;;
49578;SDS011;35483;50.828;3.228;2023-09-18T02:17:29;2.75;;;1.50;;
49578;SDS011;35483;50.828;3.228;2023-09-18T02:19:55;2.13;;;1.60;;
49578;SDS011;35483;50.828;3.228;2023-09-18T02:22:21;2.10;;;1.83;;
49578;SDS011;35483;50.828;3.228;2023-09-18T02:24:46;1.88;;;1.40;;
49578;SDS011;35483;50.828;3.228;2023-09-18T02:27:12;2.90;;;1.38;;
49578;SDS011;35483;50.828;3.228;2023-09-18T02:29:38;2.05;;;1.33;;
49578;SDS011;35483;50.828;3.228;2023-09-18T02:32:04;2.28;;;1.38;;
49578;SDS011;35483;50.828;3.228;2023-09-18T02:34:29;1.50;;;1.40;;
49578;SDS011;35483;50.828;3.228;2023-09-18T02:36:55;1.88;;;1.20;;
49578;SDS011;35483;50.828;3.228;2023-09-18T02:39:21;1.80;;;1.13;;
49578;SDS011;35483;50.828;3.228;2023-09-18T02:41:46;1.35;;;1.10;;
49578;SDS011;35483;50.828;3.228;2023-09-18T02:44:12;2.67;;;1.67;;
49578;SDS011;35483;50.828;3.228;2023-09-18T02:46:38;2.97;;;1.40;;
49578;SDS011;35483;50.828;3.228;2023-09-18T02:49:04;3.42;;;1.52;;
49578;SDS011;35483;50.828;3.228;2023-09-18T02:51:30;1.48;;;1.38;;
49578;SDS011;35483;50.828;3.228;2023-09-18T02:53:57;2.47;;;1.50;;
49578;SDS011;35483;50.828;3.228;2023-09-18T02:56:22;3.15;;;1.67;;
49578;SDS011;35483;50.828;3.228;2023-09-18T02:58:48;3.00;;;1.67;;
49578;SDS011;35483;50.828;3.228;2023-09-18T03:01:14;2.97;;;1.77;;
49578;SDS011;35483;50.828;3.228;2023-09-18T03:03:40;2.28;;;1.38;;
49578;SDS011;35483;50.828;3.228;2023-09-18T03:06:06;3.17;;;1.48;;
49578;SDS011;35483;50.828;3.228;2023-09-18T03:08:32;1.35;;;1.25;;
49578;SDS011;35483;50.828;3.228;2023-09-18T03:10:58;2.35;;;1.40;;
49578;SDS011;35483;50.828;3.228;2023-09-18T03:13:26;2.67;;;1.50;;
49578;SDS011;35483;50.828;3.228;2023-09-18T03:15:53;1.45;;;1.20;;
49578;SDS011;35483;50.828;3.228;2023-09-18T03:18:19;2.15;;;1.60;;
49578;SDS011;35483;50.828;3.228;2023-09-18T03:20:44;2.97;;;1.60;;
49578;SDS011;35483;50.828;3.228;2023-09-18T03:23:10;4.40;;;1.63;;
49578;SDS011;35483;50.828;3.228;2023-09-18T03:25:36;3.25;;;1.50;;
49578;SDS011;35483;50.828;3.228;2023-09-18T03:28:02;2.58;;;1.38;;
49578;SDS011;35483;50.828;3.228;2023-09-18T03:30:28;1.80;;;1.50;;
49578;SDS011;35483;50.828;3.228;2023-09-18T03:32:54;2.15;;;1.45;;
49578;SDS011;35483;50.828;3.228;2023-09-18T03:35:20;4.05;;;1.45;;
49578;SDS011;35483;50.828;3.228;2023-09-18T03:37:46;2.78;;;1.45;;
49578;SDS011;35483;50.828;3.228;2023-09-18T03:40:13;2.38;;;1.33;;
49578;SDS011;35483;50.828;3.228;2023-09-18T03:42:39;1.95;;;1.25;;
49578;SDS011;35483;50.828;3.228;2023-09-18T03:45:05;2.22;;;1.63;;
49578;SDS011;35483;50.828;3.228;2023-09-18T03:47:34;2.67;;;1.45;;
49578;SDS011;35483;50.828;3.228;2023-09-18T03:50:06;1.63;;;1.30;;
49578;SDS011;35483;50.828;3.228;2023-09-18T03:52:33;1.95;;;1.40;;
49578;SDS011;35483;50.828;3.228;2023-09-18T03:54:59;1.90;;;1.33;;
49578;SDS011;35483;50.828;3.228;2023-09-18T03:57:24;2.53;;;1.58;;
49578;SDS011;35483;50.828;3.228;2023-09-18T03:59:50;2.17;;;1.33;;
49578;SDS011;35483;50.828;3.228;2023-09-18T04:02:16;1.58;;;1.35;;
49578;SDS011;35483;50.828;3.228;2023-09-18T04:04:41;2.15;;;1.50;;
49578;SDS011;35483;50.828;3.228;2023-09-18T04:07:07;1.52;;;1.00;;
49578;SDS011;35483;50.828;3.228;2023-09-18T04:09:34;1.67;;;1.30;;
49578;SDS011;35483;50.828;3.228;2023-09-18T04:12:00;2.13;;;1.40;;
49578;SDS011;35483;50.828;3.228;2023-09-18T04:14:27;3.22;;;1.20;;
49578;SDS011;35483;50.828;3.228;2023-09-18T04:16:52;2.25;;;1.30;;
49578;SDS011;35483;50.828;3.228;2023-09-18T04:19:18;1.40;;;1.20;;
49578;SDS011;35483;50.828;3.228;2023-09-18T04:21:44;2.38;;;1.13;;
49578;SDS011;35483;50.828;3.228;2023-09-18T04:24:09;1.73;;;1.30;;
49578;SDS011;35483;50.828;3.228;2023-09-18T04:26:35;3.03;;;1.20;;
49578;SDS011;35483;50.828;3.228;2023-09-18T04:29:03;1.98;;;1.25;;
49578;SDS011;35483;50.828;3.228;2023-09-18T04:31:28;2.13;;;1.25;;
49578;SDS011;35483;50.828;3.228;2023-09-18T04:33:55;1.92;;;1.25;;
49578;SDS011;35483;50.828;3.228;2023-09-18T04:36:21;3.42;;;1.30;;
49578;SDS011;35483;50.828;3.228;2023-09-18T04:38:46;3.55;;;1.40;;
49578;SDS011;35483;50.828;3.228;2023-09-18T04:41:13;2.35;;;1.23;;
49578;SDS011;35483;50.828;3.228;2023-09-18T04:43:40;3.40;;;1.40;;
49578;SDS011;35483;50.828;3.228;2023-09-18T04:46:07;2.85;;;1.70;;
49578;SDS011;35483;50.828;3.228;2023-09-18T04:48:33;1.40;;;1.30;;
49578;SDS011;35483;50.828;3.228;2023-09-18T04:50:59;2.03;;;1.30;;
49578;SDS011;35483;50.828;3.228;2023-09-18T04:53:25;2.28;;;1.30;;
49578;SDS011;35483;50.828;3.228;2023-09-18T04:55:52;1.70;;;1.17;;
49578;SDS011;35483;50.828;3.228;2023-09-18T04:58:18;2.92;;;1.45;;
49578;SDS011;35483;50.828;3.228;2023-09-18T05:00:44;1.50;;;1.10;;
49578;SDS011;35483;50.828;3.228;2023-09-18T05:03:11;1.60;;;1.20;;
49578;SDS011;35483;50.828;3.228;2023-09-18T05:05:38;2.83;;;1.33;;
49578;SDS011;35483;50.828;3.228;2023-09-18T05:08:05;2.42;;;1.40;;
49578;SDS011;35483;50.828;3.228;2023-09-18T05:10:33;2.28;;;1.13;;
49578;SDS011;35483;50.828;3.228;2023-09-18T05:13:01;2.15;;;1.33;;
49578;SDS011;35483;50.828;3.228;2023-09-18T05:15:27;2.75;;;1.75;;
49578;SDS011;35483;50.828;3.228;2023-09-18T05:17:57;1.70;;;1.38;;
49578;SDS011;35483;50.828;3.228;2023-09-18T05:20:24;2.28;;;1.67;;
49578;SDS011;35483;50.828;3.228;2023-09-18T05:22:51;4.45;;;1.40;;
49578;SDS011;35483;50.828;3.228;2023-09-18T05:25:20;2.85;;;1.33;;
49578;SDS011;35483;50.828;3.228;2023-09-18T05:27:47;2.60;;;1.40;;
49578;SDS011;35483;50.828;3.228;2023-09-18T05:30:17;2.72;;;1.98;;
49578;SDS011;35483;50.828;3.228;2023-09-18T05:32:46;2.63;;;2.40;;
49578;SDS011;35483;50.828;3.228;2023-09-18T05:35:13;4.55;;;3.80;;
49578;SDS011;35483;50.828;3.228;2023-09-18T05:37:40;6.22;;;4.20;;
49578;SDS011;35483;50.828;3.228;2023-09-18T05:40:06;3.50;;;2.17;;
49578;SDS011;35483;50.828;3.228;2023-09-18T05:42:36;2.25;;;1.70;;
49578;SDS011;35483;50.828;3.228;2023-09-18T05:45:03;3.17;;;2.25;;
49578;SDS011;35483;50.828;3.228;2023-09-18T05:47:30;1.85;;;1.63;;
49578;SDS011;35483;50.828;3.228;2023-09-18T05:50:00;2.88;;;1.80;;
49578;SDS011;35483;50.828;3.228;2023-09-18T05:52:32;2.20;;;2.00;;
49578;SDS011;35483;50.828;3.228;2023-09-18T05:54:58;1.70;;;1.60;;
49578;SDS011;35483;50.828;3.228;2023-09-18T05:57:28;2.78;;;1.65;;
49578;SDS011;35483;50.828;3.228;2023-09-18T05:59:55;2.40;;;1.77;;
49578;SDS011;35483;50.828;3.228;2023-09-18T06:02:21;4.35;;;2.00;;
49578;SDS011;35483;50.828;3.228;2023-09-18T06:04:48;2.38;;;1.63;;
49578;SDS011;35483;50.828;3.228;2023-09-18T06:07:14;3.58;;;2.13;;
49578;SDS011;35483;50.828;3.228;2023-09-18T06:09:40;3.47;;;2.17;;
49578;SDS011;35483;50.828;3.228;2023-09-18T06:12:06;2.03;;;1.80;;
49578;SDS011;35483;50.828;3.228;2023-09-18T06:14:32;5.47;;;2.55;;
49578;SDS011;35483;50.828;3.228;2023-09-18T06:17:03;3.67;;;2.38;;
49578;SDS011;35483;50.828;3.228;2023-09-18T06:19:29;5.60;;;2.70;;
49578;SDS011;35483;50.828;3.228;2023-09-18T06:21:55;4.25;;;2.63;;
49578;SDS011;35483;50.828;3.228;2023-09-18T06:24:20;3.35;;;2.40;;
49578;SDS011;35483;50.828;3.228;2023-09-18T06:26:46;3.35;;;2.33;;
49578;SDS011;35483;50.828;3.228;2023-09-18T06:29:12;3.47;;;2.45;;
49578;SDS011;35483;50.828;3.228;2023-09-18T06:31:38;2.58;;;2.38;;
49578;SDS011;35483;50.828;3.228;2023-09-18T06:34:04;4.88;;;3.45;;
49578;SDS011;35483;50.828;3.228;2023-09-18T06:36:30;4.55;;;3.88;;
49578;SDS011;35483;50.828;3.228;2023-09-18T06:38:55;4.25;;;3.05;;
49578;SDS011;35483;50.828;3.228;2023-09-18T06:41:21;3.10;;;2.60;;
49578;SDS011;35483;50.828;3.228;2023-09-18T06:43:47;2.55;;;2.30;;
49578;SDS011;35483;50.828;3.228;2023-09-18T06:46:12;4.05;;;2.95;;
49578;SDS011;35483;50.828;3.228;2023-09-18T06:48:38;4.28;;;3.65;;
49578;SDS011;35483;50.828;3.228;2023-09-18T06:51:04;5.32;;;3.63;;
49578;SDS011;35483;50.828;3.228;2023-09-18T06:53:31;9.25;;;4.95;;
49578;SDS011;35483;50.828;3.228;2023-09-18T06:55:57;4.57;;;3.45;;
49578;SDS011;35483;50.828;3.228;2023-09-18T06:58:22;4.28;;;3.30;;
49578;SDS011;35483;50.828;3.228;2023-09-18T07:00:48;7.72;;;2.92;;
49578;SDS011;35483;50.828;3.228;2023-09-18T07:03:15;4.97;;;3.58;;
49578;SDS011;35483;50.828;3.228;2023-09-18T07:05:42;4.13;;;3.20;;
49578;SDS011;35483;50.828;3.228;2023-09-18T07:08:08;4.10;;;2.90;;
49578;SDS011;35483;50.828;3.228;2023-09-18T07:10:36;4.03;;;2.95;;
49578;SDS011;35483;50.828;3.228;2023-09-18T07:13:03;4.85;;;2.85;;
49578;SDS011;35483;50.828;3.228;2023-09-18T07:15:28;3.50;;;2.83;;
49578;SDS011;35483;50.828;3.228;2023-09-18T07:17:54;4.13;;;2.97;;
49578;SDS011;35483;50.828;3.228;2023-09-18T07:20:20;3.78;;;2.85;;
49578;SDS011;35483;50.828;3.228;2023-09-18T07:22:47;4.32;;;3.15;;
49578;SDS011;35483;50.828;3.228;2023-09-18T07:25:14;3.65;;;2.80;;
49578;SDS011;35483;50.828;3.228;2023-09-18T07:27:40;4.43;;;2.72;;
49578;SDS011;35483;50.828;3.228;2023-09-18T07:30:09;4.75;;;2.92;;
49578;SDS011;35483;50.828;3.228;2023-09-18T07:32:41;4.20;;;3.03;;
49578;SDS011;35483;50.828;3.228;2023-09-18T07:35:08;3.35;;;2.78;;
49578;SDS011;35483;50.828;3.228;2023-09-18T07:37:34;2.92;;;2.58;;
49578;SDS011;35483;50.828;3.228;2023-09-18T07:40:01;3.72;;;2.95;;
49578;SDS011;35483;50.828;3.228;2023-09-18T07:42:28;3.67;;;3.30;;
49578;SDS011;35483;50.828;3.228;2023-09-18T07:44:54;4.55;;;2.95;;
49578;SDS011;35483;50.828;3.228;2023-09-18T07:47:20;2.92;;;2.60;;
49578;SDS011;35483;50.828;3.228;2023-09-18T07:49:47;3.83;;;2.53;;
49578;SDS011;35483;50.828;3.228;2023-09-18T07:52:13;2.80;;;2.60;;
49578;SDS011;35483;50.828;3.228;2023-09-18T07:54:39;3.30;;;2.70;;
49578;SDS011;35483;50.828;3.228;2023-09-18T07:57:05;4.25;;;2.72;;
49578;SDS011;35483;50.828;3.228;2023-09-18T07:59:34;2.72;;;2.33;;
49578;SDS011;35483;50.828;3.228;2023-09-18T08:02:01;5.07;;;2.63;;
49578;SDS011;35483;50.828;3.228;2023-09-18T08:04:27;4.53;;;2.88;;
49578;SDS011;35483;50.828;3.228;2023-09-18T08:06:53;2.78;;;2.47;;
49578;SDS011;35483;50.828;3.228;2023-09-18T08:09:18;3.60;;;2.35;;
49578;SDS011;35483;50.828;3.228;2023-09-18T08:11:44;3.15;;;2.30;;
49578;SDS011;35483;50.828;3.228;2023-09-18T08:14:10;6.55;;;2.65;;
49578;SDS011;35483;50.828;3.228;2023-09-18T08:16:37;5.28;;;2.45;;
49578;SDS011;35483;50.828;3.228;2023-09-18T08:19:04;5.10;;;2.80;;
49578;SDS011;35483;50.828;3.228;2023-09-18T08:21:30;5.30;;;2.60;;
49578;SDS011;35483;50.828;3.228;2023-09-18T08:23:55;3.85;;;2.45;;
49578;SDS011;35483;50.828;3.228;2023-09-18T08:26:21;3.08;;;2.35;;
49578;SDS011;35483;50.828;3.228;2023-09-18T08:28:47;5.03;;;2.65;;
49578;SDS011;35483;50.828;3.228;2023-09-18T08:31:13;3.22;;;2.33;;
49578;SDS011;35483;50.828;3.228;2023-09-18T08:33:41;4.47;;;2.40;;
49578;SDS011;35483;50.828;3.228;2023-09-18T08:36:08;3.88;;;2.10;;
49578;SDS011;35483;50.828;3.228;2023-09-18T08:38:34;3.75;;;2.40;;
49578;SDS011;35483;50.828;3.228;2023-09-18T08:40:59;3.88;;;2.38;;
49578;SDS011;35483;50.828;3.228;2023-09-18T08:43:26;5.70;;;2.90;;
49578;SDS011;35483;50.828;3.228;2023-09-18T08:45:55;4.10;;;2.58;;
49578;SDS011;35483;50.828;3.228;2023-09-18T08:48:26;5.78;;;2.75;;
49578;SDS011;35483;50.828;3.228;2023-09-18T08:51:00;6.05;;;3.15;;
49578;SDS011;35483;50.828;3.228;2023-09-18T08:53:33;2.90;;;2.67;;
49578;SDS011;35483;50.828;3.228;2023-09-18T08:56:00;4.43;;;2.60;;
49578;SDS011;35483;50.828;3.228;2023-09-18T08:58:34;5.82;;;2.72;;
49578;SDS011;35483;50.828;3.228;2023-09-18T09:01:02;4.53;;;2.80;;
49578;SDS011;35483;50.828;3.228;2023-09-18T09:03:31;5.40;;;3.25;;
49578;SDS011;35483;50.828;3.228;2023-09-18T09:05:59;3.20;;;2.85;;
49578;SDS011;35483;50.828;3.228;2023-09-18T09:08:27;3.95;;;2.85;;
49578;SDS011;35483;50.828;3.228;2023-09-18T09:10:53;5.22;;;2.90;;
49578;SDS011;35483;50.828;3.228;2023-09-18T09:13:19;5.60;;;2.80;;
49578;SDS011;35483;50.828;3.228;2023-09-18T09:15:51;4.53;;;3.17;;
49578;SDS011;35483;50.828;3.228;2023-09-18T09:18:27;3.20;;;2.90;;
49578;SDS011;35483;50.828;3.228;2023-09-18T09:23:25;4.28;;;3.17;;
49578;SDS011;35483;50.828;3.228;2023-09-18T09:25:52;3.50;;;2.50;;
49578;SDS011;35483;50.828;3.228;2023-09-18T09:28:28;2.88;;;2.45;;
49578;SDS011;35483;50.828;3.228;2023-09-18T09:31:00;3.95;;;2.83;;
49578;SDS011;35483;50.828;3.228;2023-09-18T09:33:29;3.72;;;2.85;;
49578;SDS011;35483;50.828;3.228;2023-09-18T09:35:55;3.47;;;2.78;;
49578;SDS011;35483;50.828;3.228;2023-09-18T09:38:28;3.10;;;2.30;;
49578;SDS011;35483;50.828;3.228;2023-09-18T09:40:59;4.13;;;2.35;;
49578;SDS011;35483;50.828;3.228;2023-09-18T09:43:32;3.72;;;2.30;;
49578;SDS011;35483;50.828;3.228;2023-09-18T09:46:01;4.13;;;2.40;;
49578;SDS011;35483;50.828;3.228;2023-09-18T09:48:27;4.28;;;2.63;;
49578;SDS011;35483;50.828;3.228;2023-09-18T09:51:00;3.60;;;2.60;;
49578;SDS011;35483;50.828;3.228;2023-09-18T09:56:13;3.20;;;2.38;;
49578;SDS011;35483;50.828;3.228;2023-09-18T09:58:40;4.88;;;2.30;;
49578;SDS011;35483;50.828;3.228;2023-09-18T10:01:11;3.47;;;2.78;;
49578;SDS011;35483;50.828;3.228;2023-09-18T10:03:44;2.30;;;2.10;;
49578;SDS011;35483;50.828;3.228;2023-09-18T10:06:11;2.97;;;1.95;;
49578;SDS011;35483;50.828;3.228;2023-09-18T10:08:38;3.22;;;2.33;;
49578;SDS011;35483;50.828;3.228;2023-09-18T10:11:06;4.25;;;2.45;;
49578;SDS011;35483;50.828;3.228;2023-09-18T10:13:58;2.63;;;2.20;;
49578;SDS011;35483;50.828;3.228;2023-09-18T10:16:26;3.63;;;2.15;;
49578;SDS011;35483;50.828;3.228;2023-09-18T10:24:30;4.18;;;2.00;;
49578;SDS011;35483;50.828;3.228;2023-09-18T10:26:59;1.92;;;1.83;;
49578;SDS011;35483;50.828;3.228;2023-09-18T10:29:29;2.15;;;1.95;;
49578;SDS011;35483;50.828;3.228;2023-09-18T10:31:56;3.35;;;2.60;;
49578;SDS011;35483;50.828;3.228;2023-09-18T10:34:22;3.13;;;1.98;;
49578;SDS011;35483;50.828;3.228;2023-09-18T10:36:53;2.22;;;2.00;;
49578;SDS011;35483;50.828;3.228;2023-09-18T10:39:20;2.72;;;1.88;;
49578;SDS011;35483;50.828;3.228;2023-09-18T10:41:52;4.20;;;2.30;;
49578;SDS011;35483;50.828;3.228;2023-09-18T10:44:20;3.05;;;2.28;;
49578;SDS011;35483;50.828;3.228;2023-09-18T10:46:48;2.25;;;2.03;;
49578;SDS011;35483;50.828;3.228;2023-09-18T10:49:16;3.50;;;2.13;;
49578;SDS011;35483;50.828;3.228;2023-09-18T10:51:43;2.45;;;1.63;;
49578;SDS011;35483;50.828;3.228;2023-09-18T10:54:16;3.15;;;1.75;;
49578;SDS011;35483;50.828;3.228;2023-09-18T10:56:45;2.20;;;1.75;;
49578;SDS011;35483;50.828;3.228;2023-09-18T10:59:13;2.10;;;1.80;;
49578;SDS011;35483;50.828;3.228;2023-09-18T11:01:39;2.53;;;1.88;;
49578;SDS011;35483;50.828;3.228;2023-09-18T11:04:06;3.85;;;1.85;;
49578;SDS011;35483;50.828;3.228;2023-09-18T11:09:19;3.15;;;2.10;;
49578;SDS011;35483;50.828;3.228;2023-09-18T11:11:46;3.25;;;2.10;;
49578;SDS011;35483;50.828;3.228;2023-09-18T11:14:14;2.45;;;1.90;;
49578;SDS011;35483;50.828;3.228;2023-09-18T11:16:40;2.80;;;1.90;;
49578;SDS011;35483;50.828;3.228;2023-09-18T11:19:12;2.42;;;1.88;;
49578;SDS011;35483;50.828;3.228;2023-09-18T11:21:42;2.83;;;1.90;;
49578;SDS011;35483;50.828;3.228;2023-09-18T11:24:19;2.45;;;1.83;;
49578;SDS011;35483;50.828;3.228;2023-09-18T11:26:47;2.03;;;1.88;;
49578;SDS011;35483;50.828;3.228;2023-09-18T11:29:15;2.58;;;1.75;;
49578;SDS011;35483;50.828;3.228;2023-09-18T11:34:26;1.90;;;1.80;;
49578;SDS011;35483;50.828;3.228;2023-09-18T11:36:54;3.78;;;1.70;;
49578;SDS011;35483;50.828;3.228;2023-09-18T11:42:17;1.70;;;1.60;;
49578;SDS011;35483;50.828;3.228;2023-09-18T11:44:51;2.90;;;1.70;;
49578;SDS011;35483;50.828;3.228;2023-09-18T11:47:19;2.85;;;2.00;;
49578;SDS011;35483;50.828;3.228;2023-09-18T11:49:53;3.28;;;2.00;;
49578;SDS011;35483;50.828;3.228;2023-09-18T11:52:26;2.40;;;1.92;;
49578;SDS011;35483;50.828;3.228;2023-09-18T11:54:53;3.63;;;2.35;;
49578;SDS011;35483;50.828;3.228;2023-09-18T11:57:20;2.33;;;1.70;;
49578;SDS011;35483;50.828;3.228;2023-09-18T11:59:46;3.45;;;2.10;;
49578;SDS011;35483;50.828;3.228;2023-09-18T12:02:13;3.28;;;2.05;;
49578;SDS011;35483;50.828;3.228;2023-09-18T12:04:53;3.15;;;2.47;;
49578;SDS011;35483;50.828;3.228;2023-09-18T12:07:22;2.75;;;2.13;;
49578;SDS011;35483;50.828;3.228;2023-09-18T12:09:49;2.53;;;1.70;;
49578;SDS011;35483;50.828;3.228;2023-09-18T12:12:15;4.00;;;2.17;;
49578;SDS011;35483;50.828;3.228;2023-09-18T12:14:42;3.55;;;2.60;;
49578;SDS011;35483;50.828;3.228;2023-09-18T12:17:09;3.78;;;2.78;;
49578;SDS011;35483;50.828;3.228;2023-09-18T12:19:55;4.50;;;3.03;;
49578;SDS011;35483;50.828;3.228;2023-09-18T12:22:25;2.78;;;2.15;;
49578;SDS011;35483;50.828;3.228;2023-09-18T12:24:51;4.13;;;1.98;;
49578;SDS011;35483;50.828;3.228;2023-09-18T12:27:18;2.97;;;2.13;;
49578;SDS011;35483;50.828;3.228;2023-09-18T12:29:44;3.05;;;2.10;;
49578;SDS011;35483;50.828;3.228;2023-09-18T12:32:09;1.92;;;1.80;;
49578;SDS011;35483;50.828;3.228;2023-09-18T12:34:40;1.92;;;1.83;;
49578;SDS011;35483;50.828;3.228;2023-09-18T12:37:08;3.97;;;2.13;;
49578;SDS011;35483;50.828;3.228;2023-09-18T12:39:36;3.20;;;1.98;;
49578;SDS011;35483;50.828;3.228;2023-09-18T12:42:02;3.97;;;2.78;;
49578;SDS011;35483;50.828;3.228;2023-09-18T12:44:29;5.25;;;2.20;;
49578;SDS011;35483;50.828;3.228;2023-09-18T12:46:55;2.40;;;1.75;;
49578;SDS011;35483;50.828;3.228;2023-09-18T12:49:21;1.88;;;1.73;;
49578;SDS011;35483;50.828;3.228;2023-09-18T12:52:08;4.90;;;2.05;;
49578;SDS011;35483;50.828;3.228;2023-09-18T12:54:45;4.70;;;2.42;;
49578;SDS011;35483;50.828;3.228;2023-09-18T12:57:17;2.55;;;1.25;;
49578;SDS011;35483;50.828;3.228;2023-09-18T12:59:43;1.40;;;1.30;;
49578;SDS011;35483;50.828;3.228;2023-09-18T13:02:09;1.45;;;1.10;;
49578;SDS011;35483;50.828;3.228;2023-09-18T13:04:38;1.30;;;1.20;;
49578;SDS011;35483;50.828;3.228;2023-09-18T13:07:09;1.80;;;1.40;;
49578;SDS011;35483;50.828;3.228;2023-09-18T13:09:37;2.85;;;1.77;;
49578;SDS011;35483;50.828;3.228;2023-09-18T13:12:03;4.20;;;2.38;;
49578;SDS011;35483;50.828;3.228;2023-09-18T13:14:29;3.72;;;2.22;;
49578;SDS011;35483;50.828;3.228;2023-09-18T13:17:01;3.95;;;2.65;;
49578;SDS011;35483;50.828;3.228;2023-09-18T13:21:55;5.32;;;2.58;;
49578;SDS011;35483;50.828;3.228;2023-09-18T13:24:27;3.72;;;2.42;;
49578;SDS011;35483;50.828;3.228;2023-09-18T13:26:54;3.40;;;2.63;;
49578;SDS011;35483;50.828;3.228;2023-09-18T13:29:22;4.45;;;3.00;;
49578;SDS011;35483;50.828;3.228;2023-09-18T13:31:51;5.47;;;2.72;;
49578;SDS011;35483;50.828;3.228;2023-09-18T13:34:16;4.75;;;2.60;;
49578;SDS011;35483;50.828;3.228;2023-09-18T13:36:46;3.78;;;2.60;;
49578;SDS011;35483;50.828;3.228;2023-09-18T13:39:12;2.60;;;2.40;;
49578;SDS011;35483;50.828;3.228;2023-09-18T13:41:39;5.68;;;2.05;;
49578;SDS011;35483;50.828;3.228;2023-09-18T13:44:06;2.55;;;1.60;;
49578;SDS011;35483;50.828;3.228;2023-09-18T13:46:32;2.47;;;1.70;;
49578;SDS011;35483;50.828;3.228;2023-09-18T13:49:01;2.55;;;1.90;;
49578;SDS011;35483;50.828;3.228;2023-09-18T13:51:29;2.45;;;1.40;;
49578;SDS011;35483;50.828;3.228;2023-09-18T13:53:55;2.90;;;1.50;;
49578;SDS011;35483;50.828;3.228;2023-09-18T13:56:21;1.65;;;1.52;;
49578;SDS011;35483;50.828;3.228;2023-09-18T13:58:47;3.72;;;1.70;;
49578;SDS011;35483;50.828;3.228;2023-09-18T14:01:13;1.95;;;1.48;;
49578;SDS011;35483;50.828;3.228;2023-09-18T14:03:40;1.77;;;1.50;;
49578;SDS011;35483;50.828;3.228;2023-09-18T14:06:08;1.70;;;1.30;;
49578;SDS011;35483;50.828;3.228;2023-09-18T14:08:34;3.20;;;1.60;;
49578;SDS011;35483;50.828;3.228;2023-09-18T14:11:00;2.55;;;1.60;;
49578;SDS011;35483;50.828;3.228;2023-09-18T14:13:25;3.80;;;1.80;;
49578;SDS011;35483;50.828;3.228;2023-09-18T14:15:51;3.75;;;1.67;;
49578;SDS011;35483;50.828;3.228;2023-09-18T14:18:17;2.45;;;1.58;;
49578;SDS011;35483;50.828;3.228;2023-09-18T14:20:43;2.83;;;1.75;;
49578;SDS011;35483;50.828;3.228;2023-09-18T14:23:09;2.33;;;1.63;;
49578;SDS011;35483;50.828;3.228;2023-09-18T14:25:34;1.25;;;1.15;;
49578;SDS011;35483;50.828;3.228;2023-09-18T14:28:00;1.85;;;1.20;;
49578;SDS011;35483;50.828;3.228;2023-09-18T14:30:26;2.08;;;1.10;;
49578;SDS011;35483;50.828;3.228;2023-09-18T14:32:56;3.67;;;1.45;;
49578;SDS011;35483;50.828;3.228;2023-09-18T14:35:22;1.73;;;1.40;;
49578;SDS011;35483;50.828;3.228;2023-09-18T14:37:49;2.47;;;1.52;;
49578;SDS011;35483;50.828;3.228;2023-09-18T14:40:15;3.22;;;1.48;;
49578;SDS011;35483;50.828;3.228;2023-09-18T14:42:42;3.42;;;1.30;;
49578;SDS011;35483;50.828;3.228;2023-09-18T14:45:08;1.88;;;1.10;;
49578;SDS011;35483;50.828;3.228;2023-09-18T14:47:34;3.88;;;1.45;;
49578;SDS011;35483;50.828;3.228;2023-09-18T14:49:59;2.83;;;1.30;;
49578;SDS011;35483;50.828;3.228;2023-09-18T14:52:26;3.35;;;1.23;;
49578;SDS011;35483;50.828;3.228;2023-09-18T14:54:52;1.85;;;1.40;;
49578;SDS011;35483;50.828;3.228;2023-09-18T14:57:18;4.10;;;1.42;;
49578;SDS011;35483;50.828;3.228;2023-09-18T14:59:43;3.33;;;1.45;;
49578;SDS011;35483;50.828;3.228;2023-09-18T15:02:12;3.22;;;1.52;;
49578;SDS011;35483;50.828;3.228;2023-09-18T15:04:40;2.92;;;1.45;;
49578;SDS011;35483;50.828;3.228;2023-09-18T15:07:05;2.13;;;1.45;;
49578;SDS011;35483;50.828;3.228;2023-09-18T15:09:31;3.47;;;1.52;;
49578;SDS011;35483;50.828;3.228;2023-09-18T15:11:57;3.63;;;1.35;;